Time;durP1;ratioP1;P1;durP2;ratioP2;P2;SDS_P1;SDS_P2;PMS_P1;PMS_P2;Temp;Humidity;BMP_temperature;BMP_pressure;BME280_temperature;BME280_humidity;BME280_pressure;Samples;Min_cycle;Max_cycle;Signal;HPM_P1;HPM_P2
2022/09/13 00:02:00;;;;;;;9.70;4.10;;;;;;;8.48;99.69;99693.24;104994;1272;59372;-74
2022/09/13 00:04:48;;;;;;;9.60;4.60;;;;;;;8.48;99.97;99690.42;105258;1271;71074;-73
2022/09/13 00:07:36;;;;;;;12.00;5.70;;;;;;;8.50;100.00;99687.77;105126;1273;68168;-75
2022/09/13 00:10:25;;;;;;;12.20;5.70;;;;;;;8.52;100.00;99684.09;105153;1271;72775;-73
2022/09/13 00:13:15;;;;;;;13.70;5.70;;;;;;;8.54;100.00;99678.73;104919;1271;61596;-74
2022/09/13 00:16:16;;;;;;;10.90;5.40;;;;;;;8.54;100.00;99674.84;105052;1271;62426;-73
2022/09/13 00:19:05;;;;;;;12.00;6.30;;;;;;;8.50;100.00;99674.70;104903;1271;73782;-72
2022/09/13 00:21:53;;;;;;;11.60;5.60;;;;;;;8.47;100.00;99672.34;104969;1271;68515;-73
2022/09/13 00:24:41;;;;;;;14.30;6.30;;;;;;;8.43;100.00;99672.92;104987;1271;71621;-71
2022/09/13 00:27:31;;;;;;;12.30;6.20;;;;;;;8.39;100.00;99669.86;105004;1271;59411;-72
2022/09/13 00:30:19;;;;;;;14.10;7.40;;;;;;;8.33;100.00;99662.16;104957;1271;61110;-72
2022/09/13 00:33:07;;;;;;;14.50;7.40;;;;;;;8.31;100.00;99659.48;105225;1271;72979;-72
2022/09/13 00:35:56;;;;;;;14.10;7.60;;;;;;;8.30;100.00;99656.38;104966;1271;69673;-73
2022/09/13 00:38:44;;;;;;;12.60;7.10;;;;;;;8.30;100.00;99652.69;105099;1271;70534;-74
2022/09/13 00:41:32;;;;;;;12.30;7.10;;;;;;;8.29;100.00;99653.48;104907;1271;60036;-74
2022/09/13 00:45:11;;;;;;;12.90;7.40;;;;;;;8.26;100.00;99654.05;104960;1271;62138;-72
2022/09/13 00:48:06;;;;;;;14.30;7.20;;;;;;;8.21;100.00;99649.83;104915;1271;71261;-72
2022/09/13 00:50:55;;;;;;;14.20;8.90;;;;;;;8.17;100.00;99646.88;105120;1271;67575;-71
2022/09/13 00:53:48;;;;;;;14.00;7.70;;;;;;;8.17;100.00;99645.88;104909;1271;72876;-73
2022/09/13 00:56:46;;;;;;;14.00;8.00;;;;;;;8.16;100.00;99639.78;105228;1274;59343;-72
2022/09/13 01:00:13;;;;;;;13.20;8.00;;;;;;;8.16;100.00;99640.63;105121;1272;61240;-72
2022/09/13 01:03:07;;;;;;;14.70;7.40;;;;;;;8.16;100.00;99638.14;104964;1271;72884;-72
2022/09/13 01:06:19;;;;;;;13.20;7.40;;;;;;;8.15;100.00;99636.23;104806;1271;68132;-72
2022/09/13 01:09:09;;;;;;;13.20;7.00;;;;;;;8.15;100.00;99632.42;104262;1271;1463261;-71
2022/09/13 01:12:07;;;;;;;13.30;7.00;;;;;;;8.17;100.00;99632.80;104911;1271;60425;-73
2022/09/13 01:14:58;;;;;;;12.00;6.70;;;;;;;8.18;100.00;99628.45;104937;1271;60489;-74
2022/09/13 01:17:47;;;;;;;11.70;6.60;;;;;;;8.20;100.00;99626.76;104890;1271;72914;-73
2022/09/13 01:20:56;;;;;;;11.70;6.80;;;;;;;8.21;100.00;99625.65;104826;1271;68553;-72
2022/09/13 01:24:11;;;;;;;12.10;6.20;;;;;;;8.24;100.00;99624.49;105000;1271;74421;-74
2022/09/13 01:27:15;;;;;;;12.80;6.90;;;;;;;8.27;100.00;99618.79;104991;1271;60200;-75
2022/09/13 01:30:16;;;;;;;15.40;6.80;;;;;;;8.29;100.00;99614.73;105139;1271;61821;-72
2022/09/13 01:33:21;;;;;;;13.30;7.00;;;;;;;8.30;100.00;99617.89;105093;1271;73318;-72
2022/09/13 01:36:22;;;;;;;14.70;7.40;;;;;;;8.29;100.00;99610.73;105209;1271;68516;-71
2022/09/13 01:39:27;;;;;;;14.80;6.80;;;;;;;8.27;100.00;99608.57;104963;1271;73698;-73
2022/09/13 01:42:40;;;;;;;13.60;7.10;;;;;;;8.24;100.00;99606.34;105078;1271;59218;-72
2022/09/13 01:45:58;;;;;;;13.20;6.90;;;;;;;8.20;100.00;99600.41;105019;1271;61179;-72
2022/09/13 01:48:57;;;;;;;15.40;8.10;;;;;;;8.19;100.00;99602.41;105219;1271;70981;-72
2022/09/13 01:52:06;;;;;;;14.00;8.60;;;;;;;8.19;100.00;99598.33;105010;1271;68558;-73
2022/09/13 01:55:29;;;;;;;16.10;8.30;;;;;;;8.19;100.00;99603.34;105122;1271;71664;-73
2022/09/13 01:58:23;;;;;;;16.00;8.00;;;;;;;8.16;100.00;99599.60;105267;1271;59385;-71
2022/09/13 02:01:49;;;;;;;14.00;7.30;;;;;;;8.17;100.00;99601.70;104953;1271;59479;-74
2022/09/13 02:04:45;;;;;;;13.80;8.00;;;;;;;8.18;100.00;99599.35;104892;1271;73959;-77
2022/09/13 02:07:53;;;;;;;12.60;6.20;;;;;;;8.21;100.00;99602.48;104914;1271;66710;-74
2022/09/13 02:10:48;;;;;;;14.50;7.20;;;;;;;8.25;100.00;99598.61;104871;1271;72233;-75
2022/09/13 02:13:46;;;;;;;11.10;6.10;;;;;;;8.27;100.00;99598.61;105179;1271;61342;-74
2022/09/13 02:17:00;;;;;;;10.20;5.90;;;;;;;8.31;100.00;99596.02;104998;1271;61024;-74
2022/09/13 02:20:11;;;;;;;13.60;5.90;;;;;;;8.36;100.00;99588.45;105209;1271;73745;-72
2022/09/13 02:23:08;;;;;;;11.90;6.00;;;;;;;8.43;100.00;99580.84;105200;1271;68434;-74
2022/09/13 02:25:58;;;;;;;11.50;6.10;;;;;;;8.46;100.00;99577.24;104848;1271;74438;-75
2022/09/13 02:28:55;;;;;;;10.40;5.60;;;;;;;8.46;100.00;99575.01;104862;1271;60216;-72
2022/09/13 02:32:10;;;;;;;15.10;5.90;;;;;;;8.43;100.00;99566.86;105008;1271;61222;-75
2022/09/13 02:35:15;;;;;;;11.40;6.00;;;;;;;8.37;100.00;99558.45;105182;1271;71688;-72
2022/09/13 02:38:32;;;;;;;11.90;6.30;;;;;;;8.31;100.00;99551.11;105148;1271;69563;-71
2022/09/13 02:41:58;;;;;;;12.70;6.80;;;;;;;8.25;100.00;99542.27;104893;1271;72925;-73
2022/09/13 02:44:53;;;;;;;13.60;6.60;;;;;;;8.17;100.00;99539.45;105316;1271;61389;-73
2022/09/13 02:47:57;;;;;;;12.90;7.20;;;;;;;8.10;100.00;99528.35;105027;1271;61981;-73
2022/09/13 02:51:03;;;;;;;14.50;7.40;;;;;;;8.07;100.00;99528.06;104803;1271;73182;-73
2022/09/13 02:53:58;;;;;;;11.90;6.40;;;;;;;8.03;100.00;99518.15;105053;1271;68047;-73
2022/09/13 02:57:00;;;;;;;13.50;7.30;;;;;;;7.99;100.00;99507.44;104973;1271;72860;-75
2022/09/13 02:59:48;;;;;;;12.30;6.30;;;;;;;7.98;100.00;99501.91;104972;1271;59407;-74
2022/09/13 03:02:39;;;;;;;13.50;6.50;;;;;;;7.97;100.00;99496.33;105003;1269;60279;-73
2022/09/13 03:05:27;;;;;;;13.70;6.80;;;;;;;7.95;100.00;99493.08;105219;1271;72416;-72
2022/09/13 03:08:17;;;;;;;14.40;6.50;;;;;;;7.94;100.00;99491.42;105302;1271;67510;-72
2022/09/13 03:11:28;;;;;;;13.50;6.40;;;;;;;7.92;100.00;99490.33;104995;1271;71410;-72
2022/09/13 03:14:42;;;;;;;13.40;6.20;;;;;;;7.90;100.00;99484.29;105146;1271;59575;-73
2022/09/13 03:17:33;;;;;;;12.00;6.50;;;;;;;7.92;100.00;99482.91;105260;1271;59401;-72
2022/09/13 03:20:50;;;;;;;12.30;5.80;;;;;;;7.94;100.00;99482.91;104941;1271;72933;-74
2022/09/13 03:23:51;;;;;;;10.00;5.30;;;;;;;7.97;100.00;99479.88;105157;1271;68289;-77
2022/09/13 03:27:00;;;;;;;17.50;6.10;;;;;;;7.98;100.00;99476.96;104901;1271;74342;-76
2022/09/13 03:30:01;;;;;;;12.00;6.60;;;;;;;7.99;100.00;99474.10;105266;1271;59736;-73
2022/09/13 03:33:01;;;;;;;13.10;6.50;;;;;;;8.00;100.00;99472.74;104994;1271;59317;-75
2022/09/13 03:36:27;;;;;;;11.00;5.80;;;;;;;8.00;100.00;99472.74;105252;1271;72262;-72
2022/09/13 03:39:39;;;;;;;10.90;6.00;;;;;;;8.00;100.00;99473.66;105201;1271;68304;-74
2022/09/13 03:42:49;;;;;;;10.80;5.40;;;;;;;8.00;100.00;99470.10;105317;1271;70740;-76
2022/09/13 03:45:48;;;;;;;9.40;4.90;;;;;;;8.01;100.00;99465.98;104851;1271;59300;-75
2022/09/13 03:48:40;;;;;;;10.10;4.80;;;;;;;8.04;100.00;99463.45;104862;1271;60483;-73
2022/09/13 03:51:28;;;;;;;10.90;5.40;;;;;;;8.07;100.00;99466.02;104864;1271;71220;-72
2022/09/13 03:54:26;;;;;;;8.40;4.70;;;;;;;8.11;100.00;99467.69;105005;1271;67799;-73
2022/09/13 03:57:21;;;;;;;10.50;5.20;;;;;;;8.13;100.00;99461.35;105168;1274;74500;-73
2022/09/13 04:00:11;;;;;;;10.80;5.80;;;;;;;8.14;100.00;99456.46;104910;1271;59749;-72
2022/09/13 04:02:59;;;;;;;12.50;5.50;;;;;;;8.14;100.00;99449.91;104993;1272;62235;-73
2022/09/13 04:05:47;;;;;;;10.90;5.10;;;;;;;8.14;100.00;99449.22;104993;1271;72506;-75
2022/09/13 04:08:35;;;;;;;9.70;5.20;;;;;;;8.14;100.00;99447.45;104967;1271;69654;-72
2022/09/13 04:11:23;;;;;;;10.20;5.10;;;;;;;8.14;100.00;99439.66;105125;1271;73076;-73
2022/09/13 04:14:12;;;;;;;12.30;5.10;;;;;;;8.14;100.00;99433.67;104935;1271;59410;-71
2022/09/13 04:17:00;;;;;;;10.30;5.50;;;;;;;8.15;100.00;99430.98;105315;1271;60475;-72
2022/09/13 04:19:48;;;;;;;12.40;5.20;;;;;;;8.14;100.00;99430.36;106372;1271;70986;-72
2022/09/13 04:22:36;;;;;;;9.50;4.90;;;;;;;8.16;100.00;99427.02;105125;1271;68535;-72
2022/09/13 04:25:24;;;;;;;10.70;6.10;;;;;;;8.18;100.00;99421.02;105300;1271;74408;-73
2022/09/13 04:28:12;;;;;;;11.40;5.40;;;;;;;8.22;100.00;99423.00;105351;1271;59681;-73
2022/09/13 04:31:00;;;;;;;10.80;5.20;;;;;;;8.27;100.00;99420.52;105045;1271;59743;-72
2022/09/13 04:33:48;;;;;;;13.50;6.60;;;;;;;8.30;100.00;99420.77;105257;1271;72445;-73
2022/09/13 04:36:39;;;;;;;10.90;5.80;;;;;;;8.33;100.00;99413.85;104942;1271;69708;-74
2022/09/13 04:39:29;;;;;;;11.70;5.80;;;;;;;8.38;100.00;99414.34;105529;1271;72594;-74
2022/09/13 04:42:18;;;;;;;14.00;6.30;;;;;;;8.43;100.00;99409.02;105008;1271;59824;-74
2022/09/13 04:45:07;;;;;;;13.70;6.10;;;;;;;8.48;100.00;99401.59;105062;1271;61059;-74
2022/09/13 04:47:55;;;;;;;12.70;5.60;;;;;;;8.54;100.00;99400.89;104960;1274;69881;-74
2022/09/13 04:50:43;;;;;;;10.20;6.20;;;;;;;8.61;100.00;99399.12;104950;1273;69702;-73
2022/09/13 04:53:31;;;;;;;9.90;5.30;;;;;;;8.68;100.00;99399.80;105058;1274;73159;-72
2022/09/13 04:56:21;;;;;;;10.40;5.20;;;;;;;8.77;100.00;99394.67;105412;1273;59745;-74
2022/09/13 04:59:10;;;;;;;12.50;6.10;;;;;;;8.85;100.00;99394.34;105195;1271;61045;-73
2022/09/13 05:01:59;;;;;;;11.10;5.60;;;;;;;8.93;100.00;99392.88;104978;1274;72142;-73
2022/09/13 05:04:46;;;;;;;11.00;4.90;;;;;;;9.00;100.00;99391.35;105035;1273;68815;-74
2022/09/13 05:07:34;;;;;;;11.60;5.00;;;;;;;9.08;100.00;99395.85;104972;1274;74191;-76
2022/09/13 05:10:23;;;;;;;13.40;5.10;;;;;;;9.16;100.00;99394.70;104941;1273;61078;-75
2022/09/13 05:13:11;;;;;;;12.40;5.00;;;;;;;9.23;99.94;99393.20;104938;1272;62004;-75
2022/09/13 05:16:03;;;;;;;9.10;4.90;;;;;;;9.31;99.58;99383.54;104922;1273;73074;-77
2022/09/13 05:18:52;;;;;;;12.00;4.90;;;;;;;9.39;98.29;99379.48;104961;1274;68173;-75
2022/09/13 05:21:42;;;;;;;13.70;4.80;;;;;;;9.50;97.57;99378.95;104994;1274;72858;-74
2022/09/13 05:24:30;;;;;;;14.60;4.60;;;;;;;9.58;96.91;99375.81;105056;1273;59885;-75
2022/09/13 05:27:18;;;;;;;8.20;3.90;;;;;;;9.67;96.34;99374.72;105003;1274;60511;-74
2022/09/13 05:30:06;;;;;;;10.80;4.90;;;;;;;9.77;96.01;99371.92;105028;1272;72856;-73
2022/09/13 05:32:56;;;;;;;10.00;4.40;;;;;;;9.85;95.34;99369.58;105094;1274;69281;-73
2022/09/13 05:35:44;;;;;;;10.60;4.60;;;;;;;9.92;94.40;99367.65;105013;1274;74697;-74
2022/09/13 05:38:33;;;;;;;9.00;4.00;;;;;;;9.99;94.14;99360.47;104971;1274;59678;-74
2022/09/13 05:41:21;;;;;;;11.00;4.30;;;;;;;10.04;93.68;99356.27;104967;1274;62137;-75
2022/09/13 05:44:09;;;;;;;9.00;4.00;;;;;;;10.10;93.03;99357.41;105265;1274;71214;-72
2022/09/13 05:47:00;;;;;;;8.30;3.80;;;;;;;10.15;92.88;99351.91;105294;1269;66561;-72
2022/09/13 05:49:48;;;;;;;8.90;4.10;;;;;;;10.23;92.76;99353.05;105164;1271;74362;-72
2022/09/13 05:52:56;;;;;;;10.30;3.90;;;;;;;10.39;92.07;99352.07;105126;1271;61587;-71
2022/09/13 05:55:44;;;;;;;10.70;3.30;;;;;;;10.52;91.31;99348.63;105189;1271;60849;-72
2022/09/13 05:58:37;;;;;;;8.20;3.10;;;;;;;10.67;89.86;99347.95;105027;1271;74084;-73
2022/09/13 06:01:27;;;;;;;7.80;3.20;;;;;;;10.82;88.62;99349.67;104921;1271;69204;-76
2022/09/13 06:04:15;;;;;;;9.50;3.10;;;;;;;10.97;87.72;99346.70;104989;1271;74601;-74
2022/09/13 06:07:03;;;;;;;10.20;3.50;;;;;;;11.16;87.22;99339.27;105003;1271;59390;-74
2022/09/13 06:09:52;;;;;;;8.90;3.00;;;;;;;11.36;85.62;99337.98;105088;1271;59431;-74
2022/09/13 06:12:40;;;;;;;8.90;3.30;;;;;;;11.58;84.79;99332.23;104988;1271;73063;-75
2022/09/13 06:15:28;;;;;;;8.10;2.70;;;;;;;11.79;83.83;99326.59;105148;1271;69427;-74
2022/09/13 06:18:18;;;;;;;7.30;2.50;;;;;;;12.02;83.03;99324.95;105034;1271;71431;-74
2022/09/13 06:21:16;;;;;;;14.10;3.00;;;;;;;12.28;80.76;99324.09;105059;1271;61348;-76
2022/09/13 06:24:05;;;;;;;12.30;2.40;;;;;;;12.52;79.84;99315.34;105458;1271;60669;-74
2022/09/13 06:26:53;;;;;;;9.70;2.50;;;;;;;12.68;78.68;99315.56;105180;1271;70692;-75
2022/09/13 06:29:41;;;;;;;7.90;2.50;;;;;;;12.79;78.41;99319.48;105127;1271;68657;-75
2022/09/13 06:32:29;;;;;;;8.20;2.60;;;;;;;12.91;78.57;99313.83;105237;1271;72840;-75
2022/09/13 06:35:16;;;;;;;8.40;2.50;;;;;;;12.95;76.79;99305.54;105041;1271;59209;-75
2022/09/13 06:38:04;;;;;;;8.40;2.50;;;;;;;13.05;76.98;99306.57;105152;1271;61106;-75
2022/09/13 06:41:11;;;;;;;6.90;2.50;;;;;;;13.27;76.36;99302.48;105190;1271;71284;-76
2022/09/13 06:44:00;;;;;;;10.30;2.50;;;;;;;13.43;75.29;99301.84;105486;1271;69936;-73
2022/09/13 06:46:47;;;;;;;10.40;2.00;;;;;;;13.61;75.56;99302.06;105052;1271;74708;-74
2022/09/13 06:49:35;;;;;;;8.60;2.90;;;;;;;13.79;74.41;99302.40;105049;1271;59258;-74
2022/09/13 06:52:24;;;;;;;8.50;2.40;;;;;;;13.84;74.01;99299.13;105204;1271;59584;-76
2022/09/13 06:55:12;;;;;;;7.20;2.40;;;;;;;13.83;73.72;99300.69;105150;1271;69895;-74
2022/09/13 06:58:00;;;;;;;8.00;2.50;;;;;;;13.78;73.88;99294.71;105149;1271;65996;-75
2022/09/13 07:00:48;;;;;;;7.30;2.40;;;;;;;13.77;73.99;99295.97;105018;1271;74490;-74
2022/09/13 07:03:49;;;;;;;8.20;2.90;;;;;;;13.76;74.43;99293.34;105170;1271;59503;-75
2022/09/13 07:06:41;;;;;;;10.30;2.60;;;;;;;13.81;73.83;99292.69;105078;1271;60785;-73
2022/09/13 07:09:29;;;;;;;11.90;2.90;;;;;;;13.80;72.92;99287.23;105273;1271;73763;-72
2022/09/13 07:12:17;;;;;;;7.50;2.70;;;;;;;13.83;73.04;99283.23;105093;1271;69323;-73
2022/09/13 07:15:08;;;;;;;8.00;2.50;;;;;;;13.97;71.95;99284.27;105129;1271;74506;-75
2022/09/13 07:17:56;;;;;;;14.10;3.30;;;;;;;14.12;71.60;99284.84;105217;1271;59311;-75
2022/09/13 07:20:44;;;;;;;8.50;2.70;;;;;;;14.30;71.09;99284.23;105198;1271;60889;-74
2022/09/13 07:23:34;;;;;;;10.00;2.60;;;;;;;14.45;71.29;99283.71;105170;1271;71041;-73
2022/09/13 07:26:24;;;;;;;7.80;2.90;;;;;;;14.50;70.75;99281.72;105099;1271;67953;-74
2022/09/13 07:29:21;;;;;;;10.50;2.80;;;;;;;14.61;70.81;99279.46;105016;1271;74463;-74
2022/09/13 07:32:09;;;;;;;9.90;3.40;;;;;;;14.73;70.22;99273.95;105472;1271;60179;-72
2022/09/13 07:34:57;;;;;;;8.00;3.10;;;;;;;14.72;69.82;99273.33;105318;1271;59218;-74
2022/09/13 07:37:45;;;;;;;8.90;2.80;;;;;;;14.66;70.01;99272.55;105250;1271;71199;-74
2022/09/13 07:40:35;;;;;;;8.70;3.40;;;;;;;14.74;70.25;99267.94;105383;1271;68342;-71
2022/09/13 07:43:25;;;;;;;10.30;3.20;;;;;;;14.76;70.11;99268.13;105227;1271;74482;-72
2022/09/13 07:46:25;;;;;;;10.90;3.20;;;;;;;14.81;70.23;99268.08;104955;1274;59397;-74
2022/09/13 07:49:17;;;;;;;8.70;3.00;;;;;;;14.99;70.79;99263.30;105007;1274;59278;-74
2022/09/13 07:52:05;;;;;;;8.30;2.80;;;;;;;15.28;69.87;99259.79;105576;1271;72715;-73
2022/09/13 07:54:53;;;;;;;9.40;3.70;;;;;;;15.73;68.78;99249.52;105111;1271;69629;-74
2022/09/13 07:57:42;;;;;;;11.50;3.80;;;;;;;16.34;66.26;99240.24;105358;1271;74480;-73
2022/09/13 08:00:29;;;;;;;10.30;3.30;;;;;;;16.73;64.47;99240.29;105183;1271;59391;-72
2022/09/13 08:03:17;;;;;;;10.00;3.40;;;;;;;16.83;63.75;99231.61;105199;1271;61000;-72
2022/09/13 08:06:07;;;;;;;11.10;3.30;;;;;;;16.82;63.72;99233.33;105324;1271;73324;-73
2022/09/13 08:08:56;;;;;;;8.50;3.40;;;;;;;16.54;63.90;99232.53;105067;1271;66815;-72
2022/09/13 08:11:48;;;;;;;8.30;3.20;;;;;;;16.24;65.29;99226.88;105031;1274;74585;-72
2022/09/13 08:14:36;;;;;;;9.90;3.80;;;;;;;15.95;66.51;99230.77;105212;1274;59682;-73
2022/09/13 08:17:25;;;;;;;8.80;3.50;;;;;;;15.70;67.64;99227.79;105108;1274;59483;-73
2022/09/13 08:20:13;;;;;;;9.50;3.70;;;;;;;15.39;68.85;99228.75;105079;1274;74118;-73
2022/09/13 08:23:01;;;;;;;10.10;4.00;;;;;;;15.23;69.93;99219.63;105061;1273;66978;-72
2022/09/13 08:25:50;;;;;;;9.60;3.70;;;;;;;15.21;70.86;99211.12;104969;1272;74181;-73
2022/09/13 08:28:40;;;;;;;9.20;3.70;;;;;;;15.09;71.26;99206.45;104975;1274;59381;-73
2022/09/13 08:31:28;;;;;;;9.80;3.80;;;;;;;14.97;72.13;99206.39;105059;1274;60801;-72
2022/09/13 08:34:17;;;;;;;8.60;3.40;;;;;;;14.87;72.89;99202.31;104972;1274;72368;-73
2022/09/13 08:37:05;;;;;;;11.00;4.10;;;;;;;14.76;73.73;99198.00;105036;1274;69592;-73
2022/09/13 08:39:53;;;;;;;10.10;4.50;;;;;;;14.68;74.47;99191.50;105089;1274;73413;-74
2022/09/13 08:42:58;;;;;;;9.00;4.50;;;;;;;14.62;75.24;99190.48;105253;1271;59673;-74
2022/09/13 08:45:59;;;;;;;8.70;4.00;;;;;;;14.59;75.99;99182.73;105026;1271;59218;-73
2022/09/13 08:48:52;;;;;;;9.10;4.30;;;;;;;14.57;76.32;99186.88;105029;1271;72288;-78
2022/09/13 08:51:46;;;;;;;10.40;4.20;;;;;;;14.58;77.19;99186.31;105192;1271;66841;-73
2022/09/13 08:54:34;;;;;;;13.30;5.80;;;;;;;14.58;77.49;99183.20;105131;1271;72817;-72
2022/09/13 08:58:07;;;;;;;10.10;4.60;;;;;;;14.60;77.88;99185.55;105316;1271;59307;-74
2022/09/13 09:01:03;;;;;;;9.90;4.30;;;;;;;14.69;77.98;99183.87;104644;1277;60555;-73
2022/09/13 09:04:11;;;;;;;9.90;4.30;;;;;;;14.78;78.05;99186.13;104574;1277;73902;-74
2022/09/13 09:07:26;;;;;;;10.20;4.80;;;;;;;14.83;77.83;99182.85;104456;1277;68650;-75
2022/09/13 09:10:29;;;;;;;10.10;4.50;;;;;;;14.89;78.13;99184.70;104647;1277;74353;-73
2022/09/13 09:13:59;;;;;;;12.70;4.70;;;;;;;14.95;77.71;99186.94;104919;1277;59391;-75
2022/09/13 09:16:54;;;;;;;10.40;5.10;;;;;;;15.00;77.58;99180.31;104079;1284;60474;-74
2022/09/13 09:19:47;;;;;;;10.30;4.80;;;;;;;15.02;77.51;99175.31;103993;1284;72195;-76
2022/09/13 09:22:35;;;;;;;11.30;5.00;;;;;;;15.01;77.56;99171.80;104258;1283;68713;-74
2022/09/13 09:25:25;;;;;;;9.30;4.60;;;;;;;15.05;77.46;99171.35;104169;1282;72792;-72
2022/09/13 09:28:18;;;;;;;12.80;5.50;;;;;;;15.02;77.59;99174.58;104361;1283;59516;-72
2022/09/13 09:31:31;;;;;;;11.80;5.90;;;;;;;15.01;78.05;99162.79;103986;1283;61368;-74
2022/09/13 09:34:21;;;;;;;11.20;4.80;;;;;;;15.02;78.29;99158.33;104075;1283;71229;-74
2022/09/13 09:37:27;;;;;;;14.50;4.50;;;;;;;14.97;78.55;99160.28;104035;1280;69364;-74
2022/09/13 09:40:16;;;;;;;12.30;5.40;;;;;;;14.91;78.62;99160.92;104582;1280;72961;-73
2022/09/13 09:43:34;;;;;;;12.90;6.00;;;;;;;14.84;79.83;99154.95;104600;1280;59376;-75
2022/09/13 09:46:28;;;;;;;10.80;5.00;;;;;;;14.81;80.48;99147.70;104422;1278;60509;-75
2022/09/13 09:53:13;;;;;;;9.40;5.10;;;;;;;14.80;81.38;99139.80;104931;1271;69467;-75
2022/09/13 09:56:13;;;;;;;11.10;5.30;;;;;;;14.80;81.02;99139.98;105479;1271;73211;-74
2022/09/13 09:59:02;;;;;;;8.60;4.60;;;;;;;14.88;81.39;99130.53;105143;1271;59537;-74
2022/09/13 10:01:50;;;;;;;11.40;5.00;;;;;;;14.99;81.15;99121.14;105002;1271;60958;-75
2022/09/13 10:04:39;;;;;;;11.30;4.90;;;;;;;15.12;80.49;99113.80;105023;1271;72961;-75
2022/09/13 10:07:32;;;;;;;10.20;5.60;;;;;;;15.21;79.73;99106.49;105268;1271;67430;-75
2022/09/13 10:10:25;;;;;;;10.20;5.30;;;;;;;15.29;78.63;99096.16;104931;1271;72860;-75
2022/09/13 10:13:21;;;;;;;10.50;6.00;;;;;;;15.34;78.67;99093.16;105084;1271;60401;-77
2022/09/13 10:16:28;;;;;;;10.50;5.60;;;;;;;15.39;78.17;99092.40;105462;1271;60566;-75
2022/09/13 10:19:24;;;;;;;10.00;5.70;;;;;;;15.50;78.15;99091.10;105315;1271;72508;-74
2022/09/13 10:22:12;;;;;;;11.40;6.10;;;;;;;15.63;77.65;99088.77;104944;1271;69558;-74
2022/09/13 10:25:35;;;;;;;10.00;6.20;;;;;;;15.76;77.34;99087.52;105028;1270;73420;-75
2022/09/13 10:28:24;;;;;;;9.50;5.20;;;;;;;15.79;76.44;99080.84;104610;1278;59291;-76
2022/09/13 10:31:18;;;;;;;10.30;5.90;;;;;;;15.87;76.58;99072.09;104531;1277;61982;-75
2022/09/13 10:34:33;;;;;;;10.60;5.80;;;;;;;15.94;76.09;99071.46;104934;1277;73449;-75
2022/09/13 10:37:30;;;;;;;12.30;6.20;;;;;;;16.03;75.75;99061.48;104452;1277;69374;-76
2022/09/13 10:40:25;;;;;;;13.20;6.30;;;;;;;16.10;75.24;99054.65;104440;1277;74490;-75
2022/09/13 10:43:18;;;;;;;12.90;6.50;;;;;;;16.16;74.79;99052.45;104640;1277;60131;-76
2022/09/13 10:46:21;;;;;;;9.60;5.10;;;;;;;16.27;74.06;99044.00;104517;1277;60547;-75
2022/09/13 10:50:09;;;;;;;10.10;5.70;;;;;;;16.44;74.01;99041.68;104476;1277;73782;-75
2022/09/13 10:52:59;;;;;;;9.90;5.80;;;;;;;16.64;73.45;99040.20;103950;1284;68456;-76
2022/09/13 10:55:54;;;;;;;11.00;6.00;;;;;;;16.65;72.69;99041.30;104083;1284;72588;-75
2022/09/13 10:58:41;;;;;;;10.50;5.30;;;;;;;16.66;72.61;99044.75;104175;1284;59348;-74
2022/09/13 11:02:09;;;;;;;10.40;5.70;;;;;;;16.70;72.37;99035.04;103875;1284;60921;-74
2022/09/13 11:05:33;;;;;;;12.00;6.00;;;;;;;16.72;72.04;99036.92;104685;1277;73716;-75
2022/09/13 11:08:58;;;;;;;11.10;6.00;;;;;;;16.78;71.85;99031.36;104482;1278;69841;-74
2022/09/13 11:12:10;;;;;;;11.10;6.10;;;;;;;16.95;71.57;99023.48;104743;1278;72996;-74
2022/09/13 11:15:32;;;;;;;9.80;4.90;;;;;;;17.08;70.88;99021.55;104426;1279;61288;-77
2022/09/13 11:18:57;;;;;;;10.00;4.80;;;;;;;17.14;70.51;99019.89;104730;1278;61469;-75
2022/09/13 11:22:10;;;;;;;11.50;5.90;;;;;;;17.16;70.78;99020.58;104918;1277;72230;-76
2022/09/13 11:25:47;;;;;;;8.80;4.80;;;;;;;17.17;70.57;99019.48;104873;1278;68101;-75
2022/09/13 11:29:19;;;;;;;9.40;5.40;;;;;;;17.13;69.72;99013.08;104005;1282;71526;-74
2022/09/13 11:32:29;;;;;;;8.60;4.70;;;;;;;17.36;68.38;99006.50;104477;1281;59351;-75
2022/09/13 11:35:43;;;;;;;8.90;4.90;;;;;;;17.60;67.67;98990.63;104678;1281;59296;-75
2022/09/13 11:38:57;;;;;;;10.90;4.50;;;;;;;17.77;66.70;98985.30;104452;1281;73328;-77
2022/09/13 11:42:11;;;;;;;8.50;4.20;;;;;;;17.87;65.97;98988.12;104280;1281;68451;-75
2022/09/13 11:45:25;;;;;;;10.50;5.20;;;;;;;17.85;65.50;98994.71;104397;1282;71419;-77
2022/09/13 11:49:17;;;;;;;9.00;4.70;;;;;;;17.94;65.89;98990.38;104364;1282;59678;-78
2022/09/13 11:52:19;;;;;;;8.60;4.50;;;;;;;18.04;65.56;98987.76;104341;1282;62102;-77
2022/09/13 11:55:29;;;;;;;8.70;4.90;;;;;;;17.94;65.41;98977.23;104221;1282;71485;-76
2022/09/13 11:58:50;;;;;;;8.90;4.80;;;;;;;17.99;65.65;98973.43;104305;1282;67846;-78
2022/09/13 12:01:44;;;;;;;8.60;4.40;;;;;;;17.95;66.29;98968.14;104313;1281;71977;-76
2022/09/13 12:05:04;;;;;;;10.10;4.90;;;;;;;17.81;66.48;98970.30;104392;1274;59307;-76
2022/09/13 12:08:29;;;;;;;9.10;5.50;;;;;;;17.62;67.42;98966.80;105148;1274;61736;-75
2022/09/13 12:11:44;;;;;;;12.60;5.20;;;;;;;17.48;67.94;98958.77;104903;1274;73694;-74
2022/09/13 12:14:52;;;;;;;10.30;5.20;;;;;;;17.35;68.19;98953.88;105226;1274;69602;-76
2022/09/13 12:17:47;;;;;;;10.00;4.90;;;;;;;17.29;68.61;98954.84;104949;1274;72104;-74
2022/09/13 12:20:39;;;;;;;10.10;5.60;;;;;;;17.24;69.01;98948.05;105002;1274;59420;-73
2022/09/13 12:24:07;;;;;;;10.60;5.60;;;;;;;17.16;70.03;98940.96;105179;1273;61276;-73
2022/09/13 12:27:30;;;;;;;10.30;4.90;;;;;;;17.02;71.03;98940.04;105185;1274;72197;-76
2022/09/13 12:30:44;;;;;;;10.20;4.90;;;;;;;16.89;72.24;98943.70;105305;1272;68680;-71
2022/09/13 12:33:32;;;;;;;8.60;4.70;;;;;;;16.82;72.78;98940.11;105133;1273;72860;-73
2022/09/13 12:36:30;;;;;;;8.90;5.00;;;;;;;16.72;73.79;98931.10;104837;1274;59290;-70
2022/09/13 12:39:40;;;;;;;9.10;5.70;;;;;;;16.60;74.58;98922.64;104939;1274;60505;-74
2022/09/13 12:42:40;;;;;;;8.80;4.70;;;;;;;16.54;75.17;98914.00;104975;1274;74151;-73
2022/09/13 12:46:09;;;;;;;10.30;5.30;;;;;;;16.45;75.08;98911.39;105063;1271;68065;-76
2022/09/13 12:49:19;;;;;;;9.60;5.20;;;;;;;16.36;75.70;98909.75;105026;1271;72974;-75
2022/09/13 12:52:45;;;;;;;9.40;5.40;;;;;;;16.30;75.88;98917.27;105327;1271;59371;-75
2022/09/13 12:56:17;;;;;;;9.90;5.80;;;;;;;16.23;76.25;98917.62;105324;1271;60728;-73
2022/09/13 12:59:43;;;;;;;10.60;6.00;;;;;;;16.21;76.99;98915.77;105309;1271;72043;-75
2022/09/13 13:02:43;;;;;;;10.70;5.50;;;;;;;16.22;77.68;98916.36;105355;1271;68509;-75
2022/09/13 13:05:37;;;;;;;11.20;6.30;;;;;;;16.29;77.61;98913.49;105031;1271;72796;-74
2022/09/13 13:08:29;;;;;;;9.30;5.40;;;;;;;16.40;78.07;98912.08;105061;1271;59291;-75
2022/09/13 13:11:26;;;;;;;9.50;6.00;;;;;;;16.46;77.66;98904.98;104152;1271;61373;-74
2022/09/13 13:14:38;;;;;;;12.20;5.90;;;;;;;16.54;77.49;98902.81;104980;1271;72384;-74
2022/09/13 13:17:45;;;;;;;10.90;6.30;;;;;;;16.57;76.74;98895.61;104994;1271;67260;-73
2022/09/13 13:20:55;;;;;;;8.70;4.50;;;;;;;16.52;77.01;98887.16;105124;1271;72712;-75
2022/09/13 13:23:44;;;;;;;10.40;5.90;;;;;;;16.47;77.34;98883.18;105151;1271;59343;-73
2022/09/13 13:26:41;;;;;;;9.50;6.40;;;;;;;16.48;77.58;98879.15;104995;1271;59528;-74
2022/09/13 13:29:31;;;;;;;9.60;5.50;;;;;;;16.55;76.88;98873.19;105016;1271;73912;-76
2022/09/13 13:32:19;;;;;;;10.50;5.90;;;;;;;16.67;76.75;98867.93;105025;1271;65729;-74
2022/09/13 13:35:29;;;;;;;9.90;5.30;;;;;;;16.87;75.67;98862.77;105303;1271;74219;-76
2022/09/13 13:38:40;;;;;;;8.90;5.40;;;;;;;17.11;74.98;98864.73;104927;1271;59326;-75
2022/09/13 13:41:37;;;;;;;10.50;6.30;;;;;;;17.27;73.48;98859.27;105373;1271;61847;-72
2022/09/13 13:44:25;;;;;;;10.40;5.60;;;;;;;17.25;72.86;98852.77;105439;1271;73395;-75
2022/09/13 13:47:13;;;;;;;11.40;6.20;;;;;;;17.25;73.62;98846.52;105044;1271;68644;-75